Time;durP1;ratioP1;P1;durP2;ratioP2;P2;SDS_P1;SDS_P2;PMS_P1;PMS_P2;Temp;Humidity;BMP_temperature;BMP_pressure;BME280_temperature;BME280_humidity;BME280_pressure;Samples;Min_cycle;Max_cycle;Signal;HPM_P1;HPM_P2
2023/08/03 00:02:34;;;;;;;7.57;2.95;;;;;;;14.76;100.00;98728.78;5111985;28;20180;-84
2023/08/03 00:08:24;;;;;;;6.55;3.08;;;;;;;14.62;100.00;98703.69;5114310;28;20548;-84
2023/08/03 00:14:11;;;;;;;9.23;3.72;;;;;;;14.69;100.00;98703.31;5114834;28;20035;-82
2023/08/03 00:20:00;;;;;;;7.93;5.00;;;;;;;14.67;100.00;98716.25;5114501;28;20296;-83
2023/08/03 00:25:47;;;;;;;8.65;5.38;;;;;;;14.77;100.00;98730.38;5114286;28;20531;-82
2023/08/03 00:31:34;;;;;;;10.50;5.72;;;;;;;14.82;100.00;98738.34;5114562;28;20085;-81
2023/08/03 00:37:21;;;;;;;15.18;7.38;;;;;;;14.82;100.00;98748.31;5114508;28;20045;-84
2023/08/03 00:39:47;;;;;;;11.18;7.75;;;;;;;14.72;100.00;98737.69;5095836;28;20410;-84
2023/08/03 00:45:34;;;;;;;18.15;9.35;;;;;;;14.96;100.00;98792.22;5114205;28;20058;-85
2023/08/03 00:51:21;;;;;;;19.92;10.30;;;;;;;14.82;100.00;98789.47;5113334;28;20438;-82
2023/08/03 00:53:46;;;;;;;13.13;7.82;;;;;;;14.87;100.00;98781.31;5113703;28;20032;-84
2023/08/03 00:59:34;;;;;;;15.05;9.15;;;;;;;14.96;100.00;98805.66;5114023;28;20042;-83
2023/08/03 01:05:21;;;;;;;15.02;8.43;;;;;;;14.78;100.00;98788.47;5113066;28;20051;-85
2023/08/03 01:11:08;;;;;;;19.77;11.98;;;;;;;15.01;100.00;98829.81;5113961;28;20495;-83
2023/08/03 01:16:55;;;;;;;18.98;11.52;;;;;;;15.00;100.00;98827.41;5114064;28;20043;-82
2023/08/03 01:22:43;;;;;;;17.88;12.77;;;;;;;14.95;100.00;98822.91;5113746;28;20051;-85
2023/08/03 01:28:33;;;;;;;18.67;11.85;;;;;;;14.76;100.00;98811.38;5113551;28;20120;-84
2023/08/03 01:34:24;;;;;;;22.17;14.02;;;;;;;14.98;100.00;98851.13;5113806;28;20496;-84
2023/08/03 01:40:13;;;;;;;23.73;12.73;;;;;;;14.94;100.00;98845.53;5113252;28;20031;-82
2023/08/03 01:46:00;;;;;;;22.70;13.23;;;;;;;15.14;100.00;98874.06;5113115;28;20443;-81
2023/08/03 01:51:46;;;;;;;23.42;12.85;;;;;;;15.14;100.00;98882.94;5113148;28;20272;-82
2023/08/03 01:57:34;;;;;;;25.83;13.52;;;;;;;15.10;100.00;98873.84;5113370;28;20038;-81
2023/08/03 02:03:21;;;;;;;18.05;9.55;;;;;;;15.03;100.00;98867.19;5112261;28;20051;-81
2023/08/03 02:09:08;;;;;;;12.13;6.07;;;;;;;15.11;100.00;98871.94;5112727;28;20322;-83
2023/08/03 02:11:34;;;;;;;10.70;6.83;;;;;;;15.07;100.00;98890.56;5104480;28;20039;-80
2023/08/03 02:14:00;;;;;;;14.77;6.18;;;;;;;15.08;100.00;98876.03;5094252;28;20637;-81
2023/08/03 02:16:25;;;;;;;12.77;7.10;;;;;;;15.04;100.00;98872.31;5093675;28;20043;-82
2023/08/03 02:18:50;;;;;;;23.02;7.55;;;;;;;15.06;100.00;98875.53;5112588;28;20269;-82
2023/08/03 02:24:38;;;;;;;12.73;6.18;;;;;;;15.05;100.00;98871.22;5112741;28;20156;-82
2023/08/03 02:30:25;;;;;;;19.13;8.43;;;;;;;14.96;100.00;98861.38;5112759;28;20039;-82
2023/08/03 02:32:50;;;;;;;22.53;8.03;;;;;;;14.97;100.00;98850.31;5112296;28;20027;-83
2023/08/03 02:35:15;;;;;;;23.63;9.05;;;;;;;15.01;100.00;98867.50;5111488;28;20412;-84
2023/08/03 02:41:02;;;;;;;29.08;9.35;;;;;;;15.00;100.00;98862.41;5112116;28;20070;-81
2023/08/03 02:46:49;;;;;;;20.08;8.63;;;;;;;14.96;100.00;98851.41;5112427;28;20452;-81
2023/08/03 02:49:14;;;;;;;20.50;9.45;;;;;;;14.97;100.00;98861.09;5093267;28;20126;-81
2023/08/03 02:55:01;;;;;;;23.15;10.07;;;;;;;14.94;100.00;98863.56;5112268;28;20326;-80
2023/08/03 03:00:48;;;;;;;32.80;9.85;;;;;;;14.94;100.00;98864.38;5112035;28;20464;-82
2023/08/03 03:03:13;;;;;;;17.47;8.23;;;;;;;14.92;100.00;98846.91;5092888;28;20071;-82
2023/08/03 03:05:39;;;;;;;20.03;9.70;;;;;;;14.93;100.00;98878.91;5111765;28;20266;-80
2023/08/03 03:08:04;;;;;;;24.70;9.05;;;;;;;14.97;100.00;98879.94;5092782;28;20293;-81
2023/08/03 03:10:30;;;;;;;25.55;9.38;;;;;;;14.91;100.00;98883.00;5093313;28;20058;-81
2023/08/03 03:12:55;;;;;;;31.37;9.00;;;;;;;14.92;100.00;98885.41;5093441;28;20073;-82
2023/08/03 03:15:20;;;;;;;26.13;9.40;;;;;;;14.91;100.00;98880.31;5110812;28;20269;-82
2023/08/03 03:17:45;;;;;;;22.27;8.73;;;;;;;14.88;100.00;98884.38;5111762;28;20733;-80
2023/08/03 03:23:33;;;;;;;18.08;7.82;;;;;;;14.87;100.00;98898.94;5111623;28;20272;-81
2023/08/03 03:25:58;;;;;;;21.83;8.00;;;;;;;14.85;100.00;98883.06;5111559;28;20027;-82
2023/08/03 03:31:45;;;;;;;18.48;8.02;;;;;;;14.86;100.00;98919.66;5111664;28;20315;-82
2023/08/03 03:34:10;;;;;;;22.15;8.35;;;;;;;14.91;100.00;98918.78;5110562;28;20116;-83
2023/08/03 03:39:57;;;;;;;16.35;7.22;;;;;;;14.87;100.00;98928.53;5115101;28;20324;-84
2023/08/03 03:45:44;;;;;;;19.13;6.15;;;;;;;14.88;100.00;98949.75;5115258;28;20296;-83
2023/08/03 03:55:12;;;;;;;18.20;6.45;;;;;;;14.87;100.00;98966.19;5115193;28;20506;-81
2023/08/03 04:01:00;;;;;;;12.55;5.18;;;;;;;14.83;100.00;98959.81;5114697;28;20050;-81
2023/08/03 04:06:47;;;;;;;17.90;6.47;;;;;;;14.89;100.00;98982.88;5115104;28;20042;-81
2023/08/03 04:09:12;;;;;;;15.55;7.15;;;;;;;14.80;100.00;98963.88;5114751;28;20024;-83
2023/08/03 04:14:59;;;;;;;16.15;8.07;;;;;;;14.80;100.00;98980.00;5114652;28;20707;-84
2023/08/03 04:17:24;;;;;;;13.95;7.60;;;;;;;14.79;100.00;98981.09;5095562;28;20157;-82
2023/08/03 04:23:11;;;;;;;13.02;6.72;;;;;;;14.82;100.00;98993.19;5114536;28;20268;-83
2023/08/03 04:28:58;;;;;;;10.60;6.07;;;;;;;14.82;100.00;99010.13;5114233;28;20280;-82
2023/08/03 04:31:23;;;;;;;8.67;5.17;;;;;;;14.90;100.00;99021.34;5096038;28;20035;-82
2023/08/03 04:37:10;;;;;;;10.15;5.55;;;;;;;14.82;100.00;99014.72;5114518;28;20047;-81
2023/08/03 04:42:57;;;;;;;10.80;6.03;;;;;;;14.80;100.00;99015.00;5114468;28;20069;-82
2023/08/03 04:45:23;;;;;;;8.93;5.60;;;;;;;14.87;100.00;99028.09;5114026;28;20027;-82
2023/08/03 04:51:09;;;;;;;9.00;4.95;;;;;;;14.88;100.00;99035.88;5113882;28;20273;-81
2023/08/03 04:53:35;;;;;;;6.83;4.90;;;;;;;14.83;100.00;99033.25;5095046;28;20043;-81
2023/08/03 04:59:22;;;;;;;7.70;4.32;;;;;;;14.90;100.00;99045.56;5114078;28;20292;-80
2023/08/03 05:01:47;;;;;;;11.90;4.67;;;;;;;14.84;100.00;99036.75;5113106;28;20464;-79
2023/08/03 05:11:43;;;;;;;9.35;3.55;;;;;;;14.86;100.00;99064.97;5113453;28;20035;-82
2023/08/03 05:14:09;;;;;;;7.30;3.65;;;;;;;14.82;100.00;99069.31;5094801;28;20051;-81
2023/08/03 05:16:34;;;;;;;8.10;4.03;;;;;;;14.84;100.00;99071.72;5113519;28;20024;-81
2023/08/03 05:22:21;;;;;;;7.78;3.85;;;;;;;14.85;100.00;99078.72;5113410;28;20285;-81
2023/08/03 05:24:46;;;;;;;8.50;3.78;;;;;;;14.87;100.00;99090.00;5113433;28;20031;-80
2023/08/03 05:34:15;;;;;;;13.00;3.70;;;;;;;14.87;100.00;99109.63;5113579;28;20038;-85
2023/08/03 05:40:03;;;;;;;9.43;3.03;;;;;;;14.98;100.00;99120.28;5114054;28;20039;-83
2023/08/03 05:45:56;;;;;;;8.95;3.00;;;;;;;14.96;100.00;99133.22;5113982;28;20050;-84
2023/08/03 05:51:43;;;;;;;7.88;4.05;;;;;;;15.03;100.00;99142.56;5113523;28;20043;-84
2023/08/03 05:54:16;;;;;;;17.73;4.13;;;;;;;14.98;100.00;99131.84;5095005;28;20020;-83
2023/08/03 05:56:42;;;;;;;9.98;3.15;;;;;;;14.98;100.00;99141.81;5094257;28;20105;-84
2023/08/03 06:02:33;;;;;;;10.50;3.13;;;;;;;15.04;100.00;99152.28;5112359;28;20043;-81
2023/08/03 06:08:24;;;;;;;11.68;2.88;;;;;;;15.00;100.00;99159.28;5112910;28;20046;-83
2023/08/03 06:14:15;;;;;;;14.15;3.55;;;;;;;15.20;100.00;99169.06;5113068;28;20399;-83
2023/08/03 06:20:11;;;;;;;10.18;3.22;;;;;;;15.32;100.00;99185.59;5113025;28;20046;-83
2023/08/03 06:25:59;;;;;;;9.48;3.03;;;;;;;15.71;100.00;99195.47;5112951;28;20096;-84
2023/08/03 06:31:46;;;;;;;9.45;3.33;;;;;;;15.92;100.00;99207.59;5113358;28;20506;-83
2023/08/03 06:37:34;;;;;;;17.70;3.45;;;;;;;15.88;100.00;99224.63;5113409;28;20047;-82
2023/08/03 06:43:21;;;;;;;6.57;2.63;;;;;;;15.97;100.00;99229.09;5113116;28;20046;-84
2023/08/03 06:49:08;;;;;;;8.27;2.70;;;;;;;15.72;100.00;99232.09;5112869;28;20046;-85
2023/08/03 06:54:55;;;;;;;4.55;2.17;;;;;;;16.27;100.00;99200.13;5113039;28;20176;-87
2023/08/03 07:00:42;;;;;;;7.47;2.30;;;;;;;15.88;100.00;99246.97;5112400;28;20046;-85
2023/08/03 07:03:08;;;;;;;7.33;2.47;;;;;;;15.89;100.00;99263.97;5112322;28;20110;-86
2023/08/03 07:05:33;;;;;;;8.93;2.58;;;;;;;15.91;100.00;99275.28;5093107;28;20459;-84
2023/08/03 07:07:58;;;;;;;7.38;2.28;;;;;;;16.41;100.00;99260.31;5112124;28;20486;-84
2023/08/03 07:13:45;;;;;;;8.68;2.55;;;;;;;16.73;100.00;99297.41;5115788;28;20272;-87
2023/08/03 07:19:32;;;;;;;5.82;2.50;;;;;;;16.34;100.00;99300.34;5115450;28;20285;-83
2023/08/03 07:25:19;;;;;;;6.60;2.60;;;;;;;16.05;100.00;99306.66;5115992;28;20165;-84
2023/08/03 07:31:13;;;;;;;7.30;2.75;;;;;;;16.21;100.00;99317.25;5115715;28;20042;-84
2023/08/03 07:37:01;;;;;;;10.30;2.78;;;;;;;16.05;100.00;99327.41;5114474;28;20398;-85
2023/08/03 07:42:47;;;;;;;8.27;2.45;;;;;;;15.89;100.00;99324.06;5115294;28;20046;-84
2023/08/03 07:48:34;;;;;;;10.23;3.22;;;;;;;15.95;100.00;99331.03;5115245;28;20104;-85
2023/08/03 07:54:24;;;;;;;7.07;2.92;;;;;;;15.94;100.00;99336.72;5115729;28;20308;-84
2023/08/03 07:56:49;;;;;;;11.05;2.60;;;;;;;15.90;100.00;99344.56;5114290;28;20051;-81
2023/08/03 08:02:37;;;;;;;12.48;2.75;;;;;;;16.02;100.00;99350.38;5115145;28;20070;-86
2023/08/03 08:08:23;;;;;;;11.90;2.72;;;;;;;16.01;100.00;99378.41;5115001;28;20280;-82
2023/08/03 08:14:10;;;;;;;13.45;3.30;;;;;;;15.97;100.00;99385.47;5114425;28;20273;-81
2023/08/03 08:16:36;;;;;;;7.00;2.57;;;;;;;15.99;100.00;99387.88;5095738;28;20407;-84
2023/08/03 08:22:23;;;;;;;7.72;2.50;;;;;;;16.12;100.00;99406.06;5114812;28;20046;-83
2023/08/03 08:28:09;;;;;;;10.52;2.80;;;;;;;16.29;100.00;99403.72;5114955;28;20058;-82
2023/08/03 08:33:57;;;;;;;8.85;2.63;;;;;;;16.10;100.00;99427.94;5114582;28;20053;-84
2023/08/03 08:36:22;;;;;;;5.03;2.05;;;;;;;16.06;100.00;99428.78;5095239;28;20483;-84
2023/08/03 08:42:12;;;;;;;7.88;2.10;;;;;;;15.92;100.00;99435.94;5113757;28;20088;-83
2023/08/03 08:47:59;;;;;;;7.13;2.20;;;;;;;15.99;100.00;99461.47;5114211;28;20051;-83
2023/08/03 08:53:52;;;;;;;8.15;2.55;;;;;;;16.04;100.00;99466.03;5114342;28;20043;-84
2023/08/03 08:59:57;;;;;;;7.63;2.10;;;;;;;16.16;100.00;99484.50;5114208;28;20164;-86
2023/08/03 09:05:56;;;;;;;4.97;1.77;;;;;;;16.11;100.00;99499.66;5114286;28;20051;-88
2023/08/03 09:08:22;;;;;;;4.80;1.90;;;;;;;16.06;100.00;99497.00;5113080;28;20039;-89
2023/08/03 09:14:11;;;;;;;6.75;2.00;;;;;;;16.16;100.00;99517.69;5113932;28;20277;-85
2023/08/03 09:16:37;;;;;;;4.53;2.20;;;;;;;16.04;100.00;99522.66;5095726;28;20059;-86
2023/08/03 09:22:25;;;;;;;5.63;1.80;;;;;;;16.19;100.00;99537.88;5114540;28;20058;-85
2023/08/03 09:28:12;;;;;;;3.97;2.10;;;;;;;16.16;100.00;99551.94;5113755;28;20441;-83
2023/08/03 09:37:32;;;;;;;6.25;2.00;;;;;;;16.78;100.00;99574.63;5113213;28;20042;-80
2023/08/03 09:43:21;;;;;;;6.20;2.10;;;;;;;17.07;100.00;99578.09;5113511;28;20116;-85
2023/08/03 09:49:08;;;;;;;6.72;2.50;;;;;;;17.27;100.00;99594.03;5113079;28;20034;-83
2023/08/03 09:55:20;;;;;;;10.35;3.58;;;;;;;17.38;100.00;99605.53;5113400;28;20039;-80
2023/08/03 10:01:12;;;;;;;8.15;2.67;;;;;;;17.58;100.00;99607.97;5113269;28;20379;-84
2023/08/03 10:07:05;;;;;;;6.90;2.85;;;;;;;18.10;100.00;99614.28;5113206;28;20433;-85
2023/08/03 10:12:57;;;;;;;7.95;3.00;;;;;;;17.96;100.00;99626.97;5112794;28;20513;-83
2023/08/03 10:18:45;;;;;;;9.10;3.40;;;;;;;18.04;100.00;99642.53;5113290;28;20042;-82
2023/08/03 10:24:32;;;;;;;7.97;3.53;;;;;;;18.23;100.00;99650.66;5113001;28;20088;-82
2023/08/03 10:30:19;;;;;;;13.00;3.63;;;;;;;18.19;100.00;99655.81;5112834;28;20049;-81
2023/08/03 10:36:06;;;;;;;10.73;2.95;;;;;;;18.07;100.00;99662.78;5112662;28;20276;-83
2023/08/03 10:42:23;;;;;;;7.57;2.80;;;;;;;17.96;100.00;99670.25;5112770;28;20510;-85
2023/08/03 10:51:38;;;;;;;8.10;3.88;;;;;;;18.23;100.00;99685.81;5112399;28;20084;-84
2023/08/03 10:57:29;;;;;;;8.95;3.25;;;;;;;18.77;100.00;99690.66;5112358;28;20054;-84
2023/08/03 11:03:16;;;;;;;7.50;2.55;;;;;;;19.50;100.00;99694.50;5112106;28;20134;-83
2023/08/03 11:09:05;;;;;;;7.80;2.50;;;;;;;18.97;100.00;99713.09;5112060;28;20281;-84
2023/08/03 11:14:54;;;;;;;11.88;4.40;;;;;;;18.77;100.00;99723.16;5112242;28;20043;-82
2023/08/03 11:20:42;;;;;;;9.93;3.08;;;;;;;19.06;100.00;99743.84;5111632;28;20085;-86
2023/08/03 11:26:29;;;;;;;7.95;3.33;;;;;;;18.03;100.00;99749.13;5111986;28;20089;-82
2023/08/03 11:32:30;;;;;;;7.03;3.58;;;;;;;17.50;100.00;99762.69;5111880;28;20047;-83
2023/08/03 11:38:17;;;;;;;8.75;3.72;;;;;;;17.47;100.00;99784.88;5111537;28;20034;-83
2023/08/03 11:44:06;;;;;;;7.13;2.40;;;;;;;17.11;100.00;99803.31;5111954;28;20498;-80
2023/08/03 11:49:53;;;;;;;6.07;2.75;;;;;;;17.28;100.00;99816.41;5111564;28;20371;-82
2023/08/03 11:55:40;;;;;;;5.70;2.67;;;;;;;17.69;100.00;99821.47;5111915;28;20047;-82
2023/08/03 12:01:27;;;;;;;5.55;2.53;;;;;;;17.57;100.00;99840.72;5114671;28;20164;-80
2023/08/03 12:07:14;;;;;;;3.58;2.10;;;;;;;17.65;100.00;99862.56;5115147;28;20078;-83
2023/08/03 12:13:03;;;;;;;5.97;2.47;;;;;;;17.77;100.00;99877.63;5114691;28;20759;-83
2023/08/03 12:18:50;;;;;;;6.75;2.63;;;;;;;17.75;100.00;99886.03;5114477;28;20074;-79
2023/08/03 12:24:37;;;;;;;3.75;1.88;;;;;;;17.45;100.00;99906.00;5113919;28;20100;-82
2023/08/03 12:30:24;;;;;;;4.68;2.20;;;;;;;16.97;100.00;99929.25;5114573;28;20039;-79
2023/08/03 12:36:12;;;;;;;2.80;2.15;;;;;;;17.02;100.00;99951.66;5115075;28;20047;-80
2023/08/03 12:41:59;;;;;;;4.90;2.40;;;;;;;17.00;100.00;99955.72;5114466;28;20152;-81
2023/08/03 12:47:45;;;;;;;5.80;2.83;;;;;;;17.25;100.00;99979.09;5114237;28;20337;-80
2023/08/03 12:53:32;;;;;;;4.22;2.35;;;;;;;17.37;100.00;99986.88;5114259;28;20042;-79
2023/08/03 12:59:19;;;;;;;9.63;3.33;;;;;;;17.01;100.00;100014.06;5113916;28;20043;-79
2023/08/03 13:05:06;;;;;;;8.63;3.20;;;;;;;16.98;100.00;100012.72;5113925;28;20295;-79
2023/08/03 13:10:53;;;;;;;9.77;4.10;;;;;;;17.12;100.00;100026.44;5113612;28;20043;-82
2023/08/03 13:16:40;;;;;;;10.20;3.55;;;;;;;17.24;100.00;100045.84;5113790;28;20042;-82
2023/08/03 13:22:27;;;;;;;9.32;4.13;;;;;;;17.27;100.00;100056.09;5113383;28;20283;-80
2023/08/03 13:28:14;;;;;;;14.52;4.68;;;;;;;17.43;100.00;100069.53;5113643;28;20046;-79
2023/08/03 13:34:01;;;;;;;10.90;3.80;;;;;;;17.51;100.00;100068.94;5113787;28;20104;-80
2023/08/03 13:39:48;;;;;;;12.10;3.85;;;;;;;17.60;100.00;100075.38;5113822;28;20091;-81
2023/08/03 13:45:35;;;;;;;8.18;3.75;;;;;;;17.82;100.00;100091.22;5113860;28;20042;-80
2023/08/03 13:51:23;;;;;;;15.70;4.55;;;;;;;18.20;100.00;100114.75;5113788;28;20063;-78
2023/08/03 13:57:10;;;;;;;13.48;4.72;;;;;;;18.29;100.00;100108.75;5113454;28;20084;-76
2023/08/03 14:02:58;;;;;;;18.05;5.05;;;;;;;18.37;100.00;100127.09;5113198;28;20105;-76
2023/08/03 14:08:45;;;;;;;15.43;5.40;;;;;;;18.10;100.00;100131.09;5112982;28;20054;-77
2023/08/03 14:14:32;;;;;;;14.32;5.53;;;;;;;17.49;100.00;100146.81;5113021;28;20172;-77
2023/08/03 14:20:19;;;;;;;14.40;5.32;;;;;;;18.03;100.00;100160.34;5112693;28;20080;-77
2023/08/03 14:26:06;;;;;;;14.85;4.53;;;;;;;18.55;100.00;100159.72;5113019;28;20514;-80
2023/08/03 14:31:53;;;;;;;15.52;4.07;;;;;;;19.05;100.00;100170.38;5112753;28;20042;-80
2023/08/03 14:37:40;;;;;;;16.67;4.40;;;;;;;19.04;100.00;100176.91;5112873;28;20057;-79
2023/08/03 14:43:48;;;;;;;7.10;3.33;;;;;;;19.14;100.00;100188.47;5112377;28;20579;-81
2023/08/03 14:49:34;;;;;;;9.60;3.78;;;;;;;18.78;100.00;100196.09;5112382;28;20085;-79
2023/08/03 14:55:21;;;;;;;8.68;2.97;;;;;;;18.69;100.00;100211.34;5112262;28;20323;-79
2023/08/03 15:01:08;;;;;;;8.65;3.08;;;;;;;18.57;100.00;100214.41;5111875;28;20707;-80
2023/08/03 15:06:55;;;;;;;7.55;2.78;;;;;;;19.03;100.00;100224.06;5111880;28;20042;-80
2023/08/03 15:13:03;;;;;;;9.68;3.03;;;;;;;19.12;100.00;100225.09;5112483;28;20065;-78
2023/08/03 15:18:49;;;;;;;14.50;3.75;;;;;;;18.79;100.00;100235.66;5068963;28;20047;-82
2023/08/03 15:24:36;;;;;;;19.90;5.30;;;;;;;18.51;100.00;100244.50;5054701;28;20042;-81
2023/08/03 15:30:23;;;;;;;9.48;3.13;;;;;;;18.76;100.00;100259.78;5071229;28;20309;-81
2023/08/03 15:36:11;;;;;;;8.20;2.90;;;;;;;19.29;100.00;100266.09;5115713;28;20043;-82
2023/08/03 15:41:57;;;;;;;8.20;2.42;;;;;;;19.31;100.00;100271.22;5114950;28;20082;-80
2023/08/03 15:47:44;;;;;;;10.77;2.63;;;;;;;19.12;100.00;100279.28;5115527;28;20096;-82
2023/08/03 15:53:31;;;;;;;6.72;2.95;;;;;;;18.30;100.00;100283.63;5114943;28;20269;-80
2023/08/03 15:59:19;;;;;;;9.82;3.13;;;;;;;18.17;100.00;100309.38;5115102;28;20039;-78
2023/08/03 16:05:07;;;;;;;8.00;2.63;;;;;;;18.47;100.00;100300.28;5114977;28;20168;-80
2023/08/03 16:10:59;;;;;;;8.70;3.30;;;;;;;19.43;100.00;100312.34;5115083;28;20047;-79
2023/08/03 16:16:46;;;;;;;8.82;2.67;;;;;;;19.47;100.00;100308.78;5114143;28;20038;-80
2023/08/03 16:22:32;;;;;;;12.73;3.35;;;;;;;19.01;100.00;100323.81;5114572;28;20095;-82
2023/08/03 16:28:19;;;;;;;9.30;3.17;;;;;;;18.25;100.00;100355.63;5114346;28;20273;-80
2023/08/03 16:34:07;;;;;;;11.40;3.22;;;;;;;17.80;100.00;100356.56;5114691;28;20128;-79
2023/08/03 16:39:54;;;;;;;9.32;3.67;;;;;;;18.00;100.00;100352.19;5115122;28;20575;-79
2023/08/03 16:45:41;;;;;;;9.20;2.90;;;;;;;18.52;100.00;100362.56;5115194;28;20783;-79
2023/08/03 16:51:28;;;;;;;9.15;3.15;;;;;;;18.45;100.00;100370.97;5115545;28;20310;-81
2023/08/03 16:57:18;;;;;;;9.10;3.00;;;;;;;18.26;100.00;100378.91;5115836;28;20181;-80
2023/08/03 17:03:05;;;;;;;11.07;3.45;;;;;;;17.97;100.00;100394.16;5114718;28;20084;-79
2023/08/03 17:08:53;;;;;;;11.75;3.10;;;;;;;17.43;100.00;100402.81;5115277;28;20171;-81
2023/08/03 17:14:41;;;;;;;14.00;4.03;;;;;;;17.25;100.00;100408.75;5115300;28;20087;-80
2023/08/03 17:17:07;;;;;;;9.68;3.20;;;;;;;17.28;100.00;100408.19;5096182;28;20127;-80
2023/08/03 17:22:53;;;;;;;14.57;3.45;;;;;;;17.32;100.00;100425.50;5115868;28;20046;-80
2023/08/03 17:28:41;;;;;;;8.40;3.03;;;;;;;17.40;100.00;100440.41;5114767;28;20276;-79
2023/08/03 17:34:28;;;;;;;13.90;3.20;;;;;;;17.35;100.00;100454.72;5114791;28;20114;-79
2023/08/03 17:40:15;;;;;;;11.77;3.08;;;;;;;17.19;100.00;100458.47;5114611;28;20115;-79
2023/08/03 17:46:06;;;;;;;9.82;2.97;;;;;;;16.77;100.00;100467.53;5114080;28;20054;-80
2023/08/03 17:51:53;;;;;;;8.23;3.70;;;;;;;16.71;100.00;100477.47;5113728;28;20445;-79
2023/08/03 17:57:43;;;;;;;15.20;3.20;;;;;;;16.69;100.00;100481.50;5113460;28;20843;-81
2023/08/03 18:03:30;;;;;;;10.75;3.58;;;;;;;16.66;100.00;100471.25;5115511;28;20449;-81
2023/08/03 18:09:17;;;;;;;9.48;3.53;;;;;;;16.67;100.00;100491.75;5113642;28;20155;-79
2023/08/03 18:15:06;;;;;;;16.23;3.30;;;;;;;16.59;100.00;100492.25;5113501;28;20090;-83
2023/08/03 18:20:53;;;;;;;7.55;3.33;;;;;;;16.64;100.00;100506.56;5113482;28;20035;-78
2023/08/03 18:26:40;;;;;;;7.18;3.03;;;;;;;16.53;100.00;100523.81;5114572;28;20054;-78
2023/08/03 18:32:30;;;;;;;12.27;3.63;;;;;;;16.41;100.00;100515.88;5113768;28;20081;-80
2023/08/03 18:38:17;;;;;;;13.20;3.30;;;;;;;16.36;100.00;100532.06;5114576;28;20042;-80
2023/08/03 18:44:04;;;;;;;8.00;3.20;;;;;;;16.28;100.00;100543.34;5114326;28;20119;-80
2023/08/03 18:49:51;;;;;;;12.65;3.30;;;;;;;16.16;100.00;100558.88;5114023;28;20054;-80
2023/08/03 18:55:38;;;;;;;9.45;3.75;;;;;;;15.74;100.00;100567.69;5112924;28;20838;-81
2023/08/03 19:01:28;;;;;;;7.65;3.30;;;;;;;15.30;100.00;100580.38;5114237;28;20340;-78
2023/08/03 19:07:16;;;;;;;8.07;2.97;;;;;;;15.05;100.00;100588.97;5113051;28;20152;-79
2023/08/03 19:13:03;;;;;;;12.90;4.05;;;;;;;14.95;100.00;100585.31;5116548;28;20078;-80
2023/08/03 19:18:50;;;;;;;8.27;2.90;;;;;;;14.86;100.00;100585.75;5115639;28;20108;-80
2023/08/03 19:24:36;;;;;;;7.40;3.17;;;;;;;14.82;100.00;100592.69;5115541;28;20399;-79
2023/08/03 19:33:47;;;;;;;9.63;2.90;;;;;;;14.81;100.00;100591.06;5115663;28;20093;-80
2023/08/03 19:39:33;;;;;;;3.92;2.85;;;;;;;14.90;100.00;100610.28;5115522;28;20054;-79
2023/08/03 19:45:21;;;;;;;4.32;2.80;;;;;;;14.88;100.00;100610.53;5115477;28;20273;-78
2023/08/03 19:51:08;;;;;;;11.70;3.53;;;;;;;14.93;100.00;100631.34;5115357;28;20046;-77
2023/08/03 19:56:55;;;;;;;7.60;3.25;;;;;;;14.98;100.00;100644.06;5115381;28;20277;-77
2023/08/03 20:02:44;;;;;;;10.10;3.63;;;;;;;14.98;100.00;100649.44;5115354;28;20130;-78
2023/08/03 20:08:31;;;;;;;5.97;3.20;;;;;;;14.96;100.00;100644.31;5115382;28;20397;-79
2023/08/03 20:14:18;;;;;;;7.45;3.33;;;;;;;14.90;100.00;100652.56;5114955;28;20092;-81
2023/08/03 20:20:06;;;;;;;6.25;3.20;;;;;;;14.86;100.00;100654.94;5113987;28;20062;-76
2023/08/03 20:25:53;;;;;;;7.10;3.63;;;;;;;14.82;100.00;100659.19;5114765;28;21453;-78
2023/08/03 20:31:40;;;;;;;9.60;3.80;;;;;;;14.79;100.00;100657.00;5114441;28;20050;-79
2023/08/03 20:37:27;;;;;;;7.68;3.78;;;;;;;14.78;100.00;100663.44;5114693;28;20045;-79
2023/08/03 20:43:14;;;;;;;7.40;4.03;;;;;;;14.77;100.00;100672.56;5114312;28;20105;-79
2023/08/03 20:49:01;;;;;;;6.78;3.45;;;;;;;14.72;100.00;100680.53;5114571;28;20047;-79
2023/08/03 20:54:48;;;;;;;8.23;3.40;;;;;;;14.61;100.00;100692.22;5114543;28;20042;-81
2023/08/03 21:00:35;;;;;;;8.52;3.53;;;;;;;14.66;100.00;100697.69;5114818;28;20039;-82
2023/08/03 21:06:22;;;;;;;7.78;3.35;;;;;;;14.63;100.00;100692.78;5114387;28;20283;-85
2023/08/03 21:12:09;;;;;;;8.93;4.10;;;;;;;14.67;100.00;100704.69;5114765;28;20042;-81
2023/08/03 21:17:56;;;;;;;9.82;4.38;;;;;;;14.72;100.00;100710.97;5115055;28;20127;-81
2023/08/03 21:23:44;;;;;;;16.80;4.53;;;;;;;14.70;100.00;100712.28;5115345;28;20043;-80
2023/08/03 21:26:09;;;;;;;9.30;4.15;;;;;;;14.70;100.00;100709.56;5114132;28;20052;-80
2023/08/03 21:31:57;;;;;;;9.20;4.20;;;;;;;14.68;100.00;100722.47;5113107;28;20050;-76
2023/08/03 21:37:44;;;;;;;8.90;4.60;;;;;;;14.59;100.00;100730.13;5113437;28;20442;-78
2023/08/03 21:43:32;;;;;;;15.52;4.60;;;;;;;14.63;100.00;100730.47;5113390;28;20039;-77
2023/08/03 21:49:19;;;;;;;8.43;4.22;;;;;;;14.62;100.00;100726.13;5114046;28;20375;-77
2023/08/03 21:55:08;;;;;;;10.57;5.15;;;;;;;14.60;100.00;100734.47;5113212;28;20590;-76
2023/08/03 22:00:55;;;;;;;12.73;5.13;;;;;;;14.62;100.00;100743.09;5112717;28;20552;-79
2023/08/03 22:06:42;;;;;;;14.23;4.88;;;;;;;14.61;100.00;100749.53;5112588;28;20038;-78
2023/08/03 22:12:29;;;;;;;12.38;5.28;;;;;;;14.57;100.00;100743.03;5112695;28;20087;-78
2023/08/03 22:18:16;;;;;;;11.70;4.63;;;;;;;14.50;100.00;100751.25;5112503;28;20272;-76
2023/08/03 22:24:06;;;;;;;9.35;4.70;;;;;;;14.40;100.00;100756.41;5112560;28;20281;-76
2023/08/03 22:29:53;;;;;;;12.18;5.57;;;;;;;14.18;100.00;100753.59;5112823;28;20046;-77
2023/08/03 22:35:40;;;;;;;18.67;6.45;;;;;;;14.08;100.00;100763.31;5112380;28;20031;-76
2023/08/03 22:41:33;;;;;;;13.63;5.90;;;;;;;14.05;100.00;100766.47;5112190;28;20042;-76
2023/08/03 22:47:21;;;;;;;10.30;6.10;;;;;;;13.93;100.00;100775.41;5112533;28;20455;-77
2023/08/03 22:53:08;;;;;;;14.02;6.78;;;;;;;13.94;100.00;100770.84;5112462;28;20423;-75
2023/08/03 22:58:55;;;;;;;11.95;6.30;;;;;;;14.01;100.00;100789.53;5112845;28;20050;-76
2023/08/03 23:04:42;;;;;;;11.48;6.38;;;;;;;13.89;100.00;100800.31;5112906;28;20054;-76
2023/08/03 23:10:29;;;;;;;17.05;6.78;;;;;;;13.77;100.00;100797.63;5111518;28;20545;-76
2023/08/03 23:16:18;;;;;;;16.15;7.38;;;;;;;13.66;100.00;100800.34;5112268;28;20051;-78
2023/08/03 23:22:05;;;;;;;12.13;6.60;;;;;;;13.56;100.00;100806.28;5111485;28;20065;-76
2023/08/03 23:27:52;;;;;;;19.38;7.70;;;;;;;13.49;100.00;100802.91;5111631;28;20091;-76
2023/08/03 23:33:39;;;;;;;20.17;7.05;;;;;;;13.42;100.00;100794.16;5111952;28;20113;-76
2023/08/03 23:39:26;;;;;;;18.77;7.50;;;;;;;13.46;100.00;100803.38;5112502;28;20043;-76
2023/08/03 23:45:13;;;;;;;15.60;7.80;;;;;;;13.47;100.00;100799.66;5111566;28;20148;-76
2023/08/03 23:47:39;;;;;;;19.42;8.45;;;;;;;13.48;100.00;100802.09;5111278;28;20039;-76
2023/08/03 23:50:04;;;;;;;21.25;7.22;;;;;;;13.48;100.00;100804.78;5111717;28;20076;-75
2023/08/03 23:52:30;;;;;;;19.40;8.20;;;;;;;13.46;100.00;100800.69;5111662;28;20376;-76
2023/08/03 23:54:55;;;;;;;17.30;7.57;;;;;;;13.42;100.00;100794.16;5112879;28;20118;-75
2023/08/03 23:57:20;;;;;;;17.98;6.70;;;;;;;13.35;100.00;100793.47;5115070;28;20023;-76
2023/08/03 23:59:46;;;;;;;16.50;8.40;;;;;;;13.33;100.00;100805.25;5114528;28;20516;-75
